sensor_id;sensor_type;location;lat;lon;timestamp;P1;durP1;ratioP1;P2;durP2;ratioP2
489;SDS011;231;48.120;11.576;2022-09-03T00:00:15;2.53;;;2.33;;
489;SDS011;231;48.120;11.576;2022-09-03T00:02:45;2.90;;;2.70;;
489;SDS011;231;48.120;11.576;2022-09-03T00:05:17;3.10;;;2.90;;
489;SDS011;231;48.120;11.576;2022-09-03T00:07:50;2.20;;;2.00;;
489;SDS011;231;48.120;11.576;2022-09-03T00:10:24;2.57;;;2.37;;
489;SDS011;231;48.120;11.576;2022-09-03T00:12:56;3.13;;;2.50;;
489;SDS011;231;48.120;11.576;2022-09-03T00:15:26;2.73;;;2.53;;
489;SDS011;231;48.120;11.576;2022-09-03T00:17:58;4.10;;;2.93;;
489;SDS011;231;48.120;11.576;2022-09-03T00:20:32;2.30;;;2.10;;
489;SDS011;231;48.120;11.576;2022-09-03T00:23:04;2.13;;;2.00;;
489;SDS011;231;48.120;11.576;2022-09-03T00:25:35;2.47;;;2.33;;
489;SDS011;231;48.120;11.576;2022-09-03T00:28:06;3.10;;;2.90;;
489;SDS011;231;48.120;11.576;2022-09-03T00:30:38;3.57;;;2.30;;
489;SDS011;231;48.120;11.576;2022-09-03T00:33:07;2.67;;;2.47;;
489;SDS011;231;48.120;11.576;2022-09-03T00:35:40;2.53;;;2.33;;
489;SDS011;231;48.120;11.576;2022-09-03T00:38:12;3.70;;;2.50;;
489;SDS011;231;48.120;11.576;2022-09-03T00:40:43;2.57;;;2.37;;
489;SDS011;231;48.120;11.576;2022-09-03T00:43:23;4.23;;;2.70;;
489;SDS011;231;48.120;11.576;2022-09-03T00:46:01;3.40;;;2.50;;
489;SDS011;231;48.120;11.576;2022-09-03T00:48:38;3.20;;;2.87;;
489;SDS011;231;48.120;11.576;2022-09-03T00:51:17;3.47;;;3.27;;
489;SDS011;231;48.120;11.576;2022-09-03T00:53:55;2.43;;;2.23;;
489;SDS011;231;48.120;11.576;2022-09-03T00:56:30;4.47;;;2.77;;
489;SDS011;231;48.120;11.576;2022-09-03T00:59:07;2.70;;;2.50;;
489;SDS011;231;48.120;11.576;2022-09-03T01:01:47;3.13;;;2.93;;
489;SDS011;231;48.120;11.576;2022-09-03T01:04:25;2.83;;;2.67;;
489;SDS011;231;48.120;11.576;2022-09-03T01:07:00;2.97;;;2.77;;
489;SDS011;231;48.120;11.576;2022-09-03T01:09:40;4.10;;;3.10;;
489;SDS011;231;48.120;11.576;2022-09-03T01:12:17;3.00;;;2.67;;
489;SDS011;231;48.120;11.576;2022-09-03T01:14:59;2.97;;;2.77;;
489;SDS011;231;48.120;11.576;2022-09-03T01:17:35;4.10;;;3.40;;
489;SDS011;231;48.120;11.576;2022-09-03T01:20:20;5.20;;;3.03;;
489;SDS011;231;48.120;11.576;2022-09-03T01:23:15;3.43;;;3.23;;
489;SDS011;231;48.120;11.576;2022-09-03T01:26:26;3.20;;;3.00;;
489;SDS011;231;48.120;11.576;2022-09-03T01:29:05;2.67;;;2.47;;
489;SDS011;231;48.120;11.576;2022-09-03T01:31:39;2.90;;;2.70;;
489;SDS011;231;48.120;11.576;2022-09-03T01:34:14;3.63;;;3.47;;
489;SDS011;231;48.120;11.576;2022-09-03T01:36:52;3.50;;;3.20;;
489;SDS011;231;48.120;11.576;2022-09-03T01:39:44;3.43;;;3.33;;
489;SDS011;231;48.120;11.576;2022-09-03T01:42:22;2.70;;;2.50;;
489;SDS011;231;48.120;11.576;2022-09-03T01:45:15;2.73;;;2.53;;
489;SDS011;231;48.120;11.576;2022-09-03T01:48:08;3.20;;;3.00;;
489;SDS011;231;48.120;11.576;2022-09-03T01:50:45;4.03;;;3.40;;
489;SDS011;231;48.120;11.576;2022-09-03T01:53:24;3.63;;;3.43;;
489;SDS011;231;48.120;11.576;2022-09-03T01:56:17;3.87;;;2.97;;
489;SDS011;231;48.120;11.576;2022-09-03T01:58:51;3.53;;;3.33;;
489;SDS011;231;48.120;11.576;2022-09-03T02:01:28;5.13;;;3.50;;
489;SDS011;231;48.120;11.576;2022-09-03T02:03:58;3.37;;;3.17;;
489;SDS011;231;48.120;11.576;2022-09-03T02:06:27;3.33;;;3.13;;
489;SDS011;231;48.120;11.576;2022-09-03T02:08:55;3.30;;;3.17;;
489;SDS011;231;48.120;11.576;2022-09-03T02:11:24;4.30;;;3.03;;
489;SDS011;231;48.120;11.576;2022-09-03T02:13:51;4.70;;;3.40;;
489;SDS011;231;48.120;11.576;2022-09-03T02:16:22;5.60;;;2.93;;
489;SDS011;231;48.120;11.576;2022-09-03T02:18:54;3.67;;;3.07;;
489;SDS011;231;48.120;11.576;2022-09-03T02:21:24;5.47;;;3.53;;
489;SDS011;231;48.120;11.576;2022-09-03T02:23:55;6.00;;;3.27;;
489;SDS011;231;48.120;11.576;2022-09-03T02:26:24;4.97;;;3.30;;
489;SDS011;231;48.120;11.576;2022-09-03T02:28:51;2.93;;;2.73;;
489;SDS011;231;48.120;11.576;2022-09-03T02:31:19;2.83;;;2.67;;
489;SDS011;231;48.120;11.576;2022-09-03T02:33:47;2.93;;;2.73;;
489;SDS011;231;48.120;11.576;2022-09-03T02:36:15;2.80;;;2.43;;
489;SDS011;231;48.120;11.576;2022-09-03T02:38:45;3.50;;;3.10;;
489;SDS011;231;48.120;11.576;2022-09-03T02:41:12;3.90;;;3.70;;
489;SDS011;231;48.120;11.576;2022-09-03T02:43:43;3.60;;;2.60;;
489;SDS011;231;48.120;11.576;2022-09-03T02:46:16;3.30;;;3.10;;
489;SDS011;231;48.120;11.576;2022-09-03T02:48:46;3.40;;;3.20;;
489;SDS011;231;48.120;11.576;2022-09-03T02:51:13;3.20;;;3.07;;
489;SDS011;231;48.120;11.576;2022-09-03T02:53:41;3.60;;;3.40;;
489;SDS011;231;48.120;11.576;2022-09-03T02:56:08;4.20;;;3.30;;
489;SDS011;231;48.120;11.576;2022-09-03T02:58:35;5.07;;;3.80;;
489;SDS011;231;48.120;11.576;2022-09-03T03:01:04;4.40;;;3.60;;
489;SDS011;231;48.120;11.576;2022-09-03T03:03:32;3.07;;;2.90;;
489;SDS011;231;48.120;11.576;2022-09-03T03:05:59;3.43;;;3.17;;
489;SDS011;231;48.120;11.576;2022-09-03T03:08:28;4.83;;;3.60;;
489;SDS011;231;48.120;11.576;2022-09-03T03:10:57;3.30;;;2.83;;
489;SDS011;231;48.120;11.576;2022-09-03T03:13:25;3.47;;;3.20;;
489;SDS011;231;48.120;11.576;2022-09-03T03:15:54;4.00;;;3.80;;
489;SDS011;231;48.120;11.576;2022-09-03T03:18:23;3.70;;;3.50;;
489;SDS011;231;48.120;11.576;2022-09-03T03:20:50;3.40;;;3.20;;
489;SDS011;231;48.120;11.576;2022-09-03T03:23:17;3.23;;;3.03;;
489;SDS011;231;48.120;11.576;2022-09-03T03:25:45;3.27;;;3.07;;
489;SDS011;231;48.120;11.576;2022-09-03T03:28:12;3.50;;;3.30;;
489;SDS011;231;48.120;11.576;2022-09-03T03:30:44;4.77;;;4.47;;
489;SDS011;231;48.120;11.576;2022-09-03T03:33:12;8.40;;;3.67;;
489;SDS011;231;48.120;11.576;2022-09-03T03:35:40;4.53;;;3.47;;
489;SDS011;231;48.120;11.576;2022-09-03T03:38:07;3.73;;;3.53;;
489;SDS011;231;48.120;11.576;2022-09-03T03:40:36;4.70;;;4.40;;
489;SDS011;231;48.120;11.576;2022-09-03T03:43:03;4.33;;;2.57;;
489;SDS011;231;48.120;11.576;2022-09-03T03:45:30;3.60;;;3.40;;
489;SDS011;231;48.120;11.576;2022-09-03T03:47:57;3.70;;;3.50;;
489;SDS011;231;48.120;11.576;2022-09-03T03:50:24;3.67;;;3.47;;
489;SDS011;231;48.120;11.576;2022-09-03T03:52:53;3.90;;;3.60;;
489;SDS011;231;48.120;11.576;2022-09-03T03:55:20;3.53;;;3.33;;
489;SDS011;231;48.120;11.576;2022-09-03T03:57:47;3.80;;;3.60;;
489;SDS011;231;48.120;11.576;2022-09-03T04:00:15;3.87;;;3.47;;
489;SDS011;231;48.120;11.576;2022-09-03T04:02:42;3.57;;;3.37;;
489;SDS011;231;48.120;11.576;2022-09-03T04:05:09;4.60;;;4.30;;
489;SDS011;231;48.120;11.576;2022-09-03T04:07:36;3.83;;;3.63;;
489;SDS011;231;48.120;11.576;2022-09-03T04:10:05;4.40;;;4.10;;
489;SDS011;231;48.120;11.576;2022-09-03T04:12:34;4.43;;;3.93;;
489;SDS011;231;48.120;11.576;2022-09-03T04:15:01;4.40;;;4.17;;
489;SDS011;231;48.120;11.576;2022-09-03T04:17:28;7.80;;;3.83;;
489;SDS011;231;48.120;11.576;2022-09-03T04:19:55;3.60;;;3.40;;
489;SDS011;231;48.120;11.576;2022-09-03T04:22:22;3.50;;;3.30;;
489;SDS011;231;48.120;11.576;2022-09-03T04:24:49;3.30;;;3.10;;
489;SDS011;231;48.120;11.576;2022-09-03T04:27:17;3.97;;;3.77;;
489;SDS011;231;48.120;11.576;2022-09-03T04:29:44;3.83;;;3.63;;
489;SDS011;231;48.120;11.576;2022-09-03T04:32:11;3.20;;;3.00;;
489;SDS011;231;48.120;11.576;2022-09-03T04:34:55;3.93;;;3.73;;
489;SDS011;231;48.120;11.576;2022-09-03T04:37:22;4.83;;;4.37;;
489;SDS011;231;48.120;11.576;2022-09-03T04:39:50;2.80;;;2.60;;
489;SDS011;231;48.120;11.576;2022-09-03T04:42:21;3.57;;;3.37;;
489;SDS011;231;48.120;11.576;2022-09-03T04:44:47;4.43;;;4.10;;
489;SDS011;231;48.120;11.576;2022-09-03T04:47:14;3.97;;;3.70;;
489;SDS011;231;48.120;11.576;2022-09-03T04:49:41;3.80;;;3.60;;
489;SDS011;231;48.120;11.576;2022-09-03T04:52:09;3.93;;;3.73;;
489;SDS011;231;48.120;11.576;2022-09-03T04:54:36;3.60;;;3.43;;
489;SDS011;231;48.120;11.576;2022-09-03T04:57:03;3.40;;;3.20;;
489;SDS011;231;48.120;11.576;2022-09-03T04:59:31;4.37;;;4.10;;
489;SDS011;231;48.120;11.576;2022-09-03T05:01:58;3.77;;;2.93;;
489;SDS011;231;48.120;11.576;2022-09-03T05:04:25;3.80;;;3.60;;
489;SDS011;231;48.120;11.576;2022-09-03T05:06:52;4.70;;;4.40;;
489;SDS011;231;48.120;11.576;2022-09-03T05:09:19;3.47;;;3.27;;
489;SDS011;231;48.120;11.576;2022-09-03T05:11:46;3.20;;;3.00;;
489;SDS011;231;48.120;11.576;2022-09-03T05:14:13;4.40;;;4.10;;
489;SDS011;231;48.120;11.576;2022-09-03T05:16:42;5.90;;;3.70;;
489;SDS011;231;48.120;11.576;2022-09-03T05:19:08;4.77;;;2.97;;
489;SDS011;231;48.120;11.576;2022-09-03T05:21:36;4.73;;;4.00;;
489;SDS011;231;48.120;11.576;2022-09-03T05:24:04;5.03;;;4.40;;
489;SDS011;231;48.120;11.576;2022-09-03T05:26:32;4.00;;;3.80;;
489;SDS011;231;48.120;11.576;2022-09-03T05:29:02;4.67;;;4.37;;
489;SDS011;231;48.120;11.576;2022-09-03T05:31:32;5.30;;;3.97;;
489;SDS011;231;48.120;11.576;2022-09-03T05:34:02;5.30;;;5.00;;
489;SDS011;231;48.120;11.576;2022-09-03T05:36:31;4.30;;;4.00;;
489;SDS011;231;48.120;11.576;2022-09-03T05:38:59;4.07;;;3.87;;
489;SDS011;231;48.120;11.576;2022-09-03T05:41:27;6.23;;;4.20;;
489;SDS011;231;48.120;11.576;2022-09-03T05:43:54;3.77;;;3.57;;
489;SDS011;231;48.120;11.576;2022-09-03T05:46:23;4.93;;;4.40;;
489;SDS011;231;48.120;11.576;2022-09-03T05:48:58;4.47;;;3.47;;
489;SDS011;231;48.120;11.576;2022-09-03T05:51:27;4.40;;;4.10;;
489;SDS011;231;48.120;11.576;2022-09-03T05:53:55;9.13;;;4.90;;
489;SDS011;231;48.120;11.576;2022-09-03T05:56:24;5.47;;;4.30;;
489;SDS011;231;48.120;11.576;2022-09-03T05:58:52;5.47;;;4.40;;
489;SDS011;231;48.120;11.576;2022-09-03T06:01:22;4.10;;;3.90;;
489;SDS011;231;48.120;11.576;2022-09-03T06:03:52;4.53;;;4.23;;
489;SDS011;231;48.120;11.576;2022-09-03T06:06:22;3.77;;;3.50;;
489;SDS011;231;48.120;11.576;2022-09-03T06:08:52;4.20;;;3.97;;
489;SDS011;231;48.120;11.576;2022-09-03T06:11:20;4.50;;;4.20;;
489;SDS011;231;48.120;11.576;2022-09-03T06:13:52;5.20;;;4.00;;
489;SDS011;231;48.120;11.576;2022-09-03T06:16:19;3.70;;;3.50;;
489;SDS011;231;48.120;11.576;2022-09-03T06:18:46;4.30;;;4.00;;
489;SDS011;231;48.120;11.576;2022-09-03T06:21:14;4.60;;;4.30;;
489;SDS011;231;48.120;11.576;2022-09-03T06:23:41;3.70;;;3.50;;
489;SDS011;231;48.120;11.576;2022-09-03T06:26:10;4.27;;;4.00;;
489;SDS011;231;48.120;11.576;2022-09-03T06:28:39;9.47;;;4.10;;
489;SDS011;231;48.120;11.576;2022-09-03T06:31:09;4.73;;;4.43;;
489;SDS011;231;48.120;11.576;2022-09-03T06:33:37;4.30;;;4.00;;
489;SDS011;231;48.120;11.576;2022-09-03T06:36:07;4.37;;;4.07;;
489;SDS011;231;48.120;11.576;2022-09-03T06:38:37;4.40;;;4.10;;
489;SDS011;231;48.120;11.576;2022-09-03T06:41:09;4.33;;;4.03;;
489;SDS011;231;48.120;11.576;2022-09-03T06:43:39;6.20;;;5.43;;
489;SDS011;231;48.120;11.576;2022-09-03T06:46:08;7.53;;;4.80;;
489;SDS011;231;48.120;11.576;2022-09-03T06:48:37;4.50;;;4.20;;
489;SDS011;231;48.120;11.576;2022-09-03T06:51:05;4.80;;;4.50;;
489;SDS011;231;48.120;11.576;2022-09-03T06:53:35;5.00;;;4.70;;
489;SDS011;231;48.120;11.576;2022-09-03T06:56:04;5.80;;;5.50;;
489;SDS011;231;48.120;11.576;2022-09-03T06:58:34;5.73;;;4.50;;
489;SDS011;231;48.120;11.576;2022-09-03T07:01:02;5.00;;;4.70;;
489;SDS011;231;48.120;11.576;2022-09-03T07:03:41;4.90;;;4.60;;
489;SDS011;231;48.120;11.576;2022-09-03T07:06:09;3.80;;;3.60;;
489;SDS011;231;48.120;11.576;2022-09-03T07:08:38;4.37;;;4.07;;
489;SDS011;231;48.120;11.576;2022-09-03T07:11:07;4.17;;;3.50;;
489;SDS011;231;48.120;11.576;2022-09-03T07:13:37;6.40;;;5.67;;
489;SDS011;231;48.120;11.576;2022-09-03T07:16:14;4.40;;;3.80;;
489;SDS011;231;48.120;11.576;2022-09-03T07:18:42;5.90;;;4.33;;
489;SDS011;231;48.120;11.576;2022-09-03T07:21:11;4.93;;;4.63;;
489;SDS011;231;48.120;11.576;2022-09-03T07:23:42;4.97;;;4.67;;
489;SDS011;231;48.120;11.576;2022-09-03T07:26:11;4.80;;;4.43;;
489;SDS011;231;48.120;11.576;2022-09-03T07:28:41;5.87;;;4.53;;
489;SDS011;231;48.120;11.576;2022-09-03T07:31:10;4.00;;;3.80;;
489;SDS011;231;48.120;11.576;2022-09-03T07:33:40;5.47;;;5.17;;
489;SDS011;231;48.120;11.576;2022-09-03T07:36:08;4.37;;;4.10;;
489;SDS011;231;48.120;11.576;2022-09-03T07:41:13;5.57;;;5.27;;
489;SDS011;231;48.120;11.576;2022-09-03T07:43:42;4.90;;;4.60;;
489;SDS011;231;48.120;11.576;2022-09-03T07:46:11;4.30;;;4.00;;
489;SDS011;231;48.120;11.576;2022-09-03T07:48:38;4.23;;;3.97;;
489;SDS011;231;48.120;11.576;2022-09-03T07:51:06;4.40;;;4.10;;
489;SDS011;231;48.120;11.576;2022-09-03T07:53:33;6.17;;;5.87;;
489;SDS011;231;48.120;11.576;2022-09-03T07:56:02;5.77;;;5.50;;
489;SDS011;231;48.120;11.576;2022-09-03T07:58:30;4.93;;;4.67;;
489;SDS011;231;48.120;11.576;2022-09-03T08:01:02;5.70;;;5.27;;
489;SDS011;231;48.120;11.576;2022-09-03T08:03:32;6.50;;;5.23;;
489;SDS011;231;48.120;11.576;2022-09-03T08:06:00;4.60;;;4.23;;
489;SDS011;231;48.120;11.576;2022-09-03T08:08:28;6.60;;;6.17;;
489;SDS011;231;48.120;11.576;2022-09-03T08:11:02;5.87;;;5.57;;
489;SDS011;231;48.120;11.576;2022-09-03T08:13:30;4.70;;;4.30;;
489;SDS011;231;48.120;11.576;2022-09-03T08:15:58;4.10;;;3.90;;
489;SDS011;231;48.120;11.576;2022-09-03T08:18:26;5.07;;;4.77;;
489;SDS011;231;48.120;11.576;2022-09-03T08:21:02;4.17;;;3.93;;
489;SDS011;231;48.120;11.576;2022-09-03T08:23:31;6.63;;;6.23;;
489;SDS011;231;48.120;11.576;2022-09-03T08:25:59;7.17;;;6.23;;
489;SDS011;231;48.120;11.576;2022-09-03T08:28:27;4.70;;;4.43;;
489;SDS011;231;48.120;11.576;2022-09-03T08:31:02;6.10;;;5.80;;
489;SDS011;231;48.120;11.576;2022-09-03T08:33:31;9.07;;;5.97;;
489;SDS011;231;48.120;11.576;2022-09-03T08:36:05;5.23;;;4.93;;
489;SDS011;231;48.120;11.576;2022-09-03T08:38:34;5.77;;;5.47;;
489;SDS011;231;48.120;11.576;2022-09-03T08:41:05;5.57;;;5.27;;
489;SDS011;231;48.120;11.576;2022-09-03T08:43:39;5.37;;;5.07;;
489;SDS011;231;48.120;11.576;2022-09-03T08:49:30;5.73;;;5.43;;
489;SDS011;231;48.120;11.576;2022-09-03T08:52:02;4.80;;;4.50;;
489;SDS011;231;48.120;11.576;2022-09-03T08:57:49;7.80;;;7.40;;
489;SDS011;231;48.120;11.576;2022-09-03T09:03:45;5.53;;;5.10;;
489;SDS011;231;48.120;11.576;2022-09-03T09:06:20;6.20;;;5.87;;
489;SDS011;231;48.120;11.576;2022-09-03T09:08:58;7.03;;;5.67;;
489;SDS011;231;48.120;11.576;2022-09-03T09:11:44;5.70;;;5.40;;
489;SDS011;231;48.120;11.576;2022-09-03T09:14:17;5.33;;;5.03;;
489;SDS011;231;48.120;11.576;2022-09-03T09:16:49;6.60;;;6.20;;
489;SDS011;231;48.120;11.576;2022-09-03T09:19:30;5.50;;;5.20;;
489;SDS011;231;48.120;11.576;2022-09-03T09:22:08;6.00;;;5.70;;
489;SDS011;231;48.120;11.576;2022-09-03T09:24:39;3.90;;;3.70;;
489;SDS011;231;48.120;11.576;2022-09-03T09:27:08;4.80;;;4.50;;
489;SDS011;231;48.120;11.576;2022-09-03T09:29:41;4.50;;;4.20;;
489;SDS011;231;48.120;11.576;2022-09-03T09:32:11;4.53;;;4.23;;
489;SDS011;231;48.120;11.576;2022-09-03T09:34:42;3.90;;;3.70;;
489;SDS011;231;48.120;11.576;2022-09-03T09:37:11;4.17;;;3.70;;
489;SDS011;231;48.120;11.576;2022-09-03T09:39:40;10.10;;;5.57;;
489;SDS011;231;48.120;11.576;2022-09-03T09:42:22;6.20;;;5.90;;
489;SDS011;231;48.120;11.576;2022-09-03T09:44:53;3.47;;;3.27;;
489;SDS011;231;48.120;11.576;2022-09-03T09:47:21;4.77;;;4.47;;
489;SDS011;231;48.120;11.576;2022-09-03T09:49:53;4.40;;;4.10;;
489;SDS011;231;48.120;11.576;2022-09-03T09:52:22;3.60;;;3.40;;
489;SDS011;231;48.120;11.576;2022-09-03T09:54:53;3.40;;;3.20;;
489;SDS011;231;48.120;11.576;2022-09-03T09:57:32;3.30;;;3.10;;
489;SDS011;231;48.120;11.576;2022-09-03T10:00:03;2.87;;;2.67;;
489;SDS011;231;48.120;11.576;2022-09-03T10:02:34;4.00;;;3.80;;
489;SDS011;231;48.120;11.576;2022-09-03T10:05:12;5.33;;;3.47;;
489;SDS011;231;48.120;11.576;2022-09-03T10:07:41;3.30;;;3.10;;
489;SDS011;231;48.120;11.576;2022-09-03T10:10:13;3.70;;;3.53;;
489;SDS011;231;48.120;11.576;2022-09-03T10:12:44;3.63;;;3.43;;
489;SDS011;231;48.120;11.576;2022-09-03T10:15:19;3.07;;;2.87;;
489;SDS011;231;48.120;11.576;2022-09-03T10:17:55;3.63;;;2.93;;
489;SDS011;231;48.120;11.576;2022-09-03T10:20:32;3.77;;;3.57;;
489;SDS011;231;48.120;11.576;2022-09-03T10:23:29;3.57;;;3.37;;
489;SDS011;231;48.120;11.576;2022-09-03T10:26:01;3.20;;;2.70;;
489;SDS011;231;48.120;11.576;2022-09-03T10:28:32;3.10;;;2.60;;
489;SDS011;231;48.120;11.576;2022-09-03T10:31:11;2.50;;;2.30;;
489;SDS011;231;48.120;11.576;2022-09-03T10:33:46;3.43;;;3.23;;
489;SDS011;231;48.120;11.576;2022-09-03T10:36:19;2.93;;;2.73;;
489;SDS011;231;48.120;11.576;2022-09-03T10:38:52;3.17;;;2.97;;
489;SDS011;231;48.120;11.576;2022-09-03T10:41:29;2.30;;;2.10;;
489;SDS011;231;48.120;11.576;2022-09-03T10:47:06;2.37;;;2.10;;
489;SDS011;231;48.120;11.576;2022-09-03T10:49:47;3.03;;;2.83;;
489;SDS011;231;48.120;11.576;2022-09-03T10:52:21;3.03;;;2.83;;
489;SDS011;231;48.120;11.576;2022-09-03T10:55:06;6.23;;;3.43;;
489;SDS011;231;48.120;11.576;2022-09-03T10:57:43;2.20;;;2.00;;
489;SDS011;231;48.120;11.576;2022-09-03T11:00:16;2.90;;;2.20;;
489;SDS011;231;48.120;11.576;2022-09-03T11:02:53;3.33;;;2.30;;
489;SDS011;231;48.120;11.576;2022-09-03T11:05:36;2.97;;;2.53;;
489;SDS011;231;48.120;11.576;2022-09-03T11:08:08;2.13;;;1.97;;
489;SDS011;231;48.120;11.576;2022-09-03T11:10:42;3.70;;;2.57;;
489;SDS011;231;48.120;11.576;2022-09-03T11:13:15;2.60;;;2.40;;
489;SDS011;231;48.120;11.576;2022-09-03T11:15:47;2.07;;;1.93;;
489;SDS011;231;48.120;11.576;2022-09-03T11:18:19;2.97;;;2.10;;
489;SDS011;231;48.120;11.576;2022-09-03T11:20:51;2.37;;;2.17;;
489;SDS011;231;48.120;11.576;2022-09-03T11:23:27;1.83;;;1.73;;
489;SDS011;231;48.120;11.576;2022-09-03T11:25:58;2.40;;;2.20;;
489;SDS011;231;48.120;11.576;2022-09-03T11:28:29;2.10;;;1.97;;
489;SDS011;231;48.120;11.576;2022-09-03T11:31:11;2.70;;;2.50;;
489;SDS011;231;48.120;11.576;2022-09-03T11:33:44;1.70;;;1.60;;
489;SDS011;231;48.120;11.576;2022-09-03T11:36:21;2.70;;;2.50;;
489;SDS011;231;48.120;11.576;2022-09-03T11:38:53;2.57;;;2.37;;
489;SDS011;231;48.120;11.576;2022-09-03T11:41:23;2.07;;;1.93;;
489;SDS011;231;48.120;11.576;2022-09-03T11:43:52;1.90;;;1.80;;
489;SDS011;231;48.120;11.576;2022-09-03T11:46:29;3.93;;;2.73;;
489;SDS011;231;48.120;11.576;2022-09-03T11:49:08;1.93;;;1.83;;
489;SDS011;231;48.120;11.576;2022-09-03T11:51:36;2.60;;;2.40;;
489;SDS011;231;48.120;11.576;2022-09-03T11:54:22;2.13;;;1.97;;
489;SDS011;231;48.120;11.576;2022-09-03T11:56:50;4.17;;;3.90;;
489;SDS011;231;48.120;11.576;2022-09-03T11:59:34;1.83;;;1.73;;
489;SDS011;231;48.120;11.576;2022-09-03T12:02:03;2.40;;;2.20;;
489;SDS011;231;48.120;11.576;2022-09-03T12:04:43;2.70;;;2.50;;
489;SDS011;231;48.120;11.576;2022-09-03T12:07:30;3.13;;;2.17;;
489;SDS011;231;48.120;11.576;2022-09-03T12:10:19;2.27;;;2.17;;
489;SDS011;231;48.120;11.576;2022-09-03T12:13:02;3.90;;;3.70;;
489;SDS011;231;48.120;11.576;2022-09-03T12:16:04;2.40;;;2.20;;
489;SDS011;231;48.120;11.576;2022-09-03T12:18:43;3.73;;;3.20;;
489;SDS011;231;48.120;11.576;2022-09-03T12:21:15;3.60;;;3.40;;
489;SDS011;231;48.120;11.576;2022-09-03T12:23:44;2.47;;;2.27;;
489;SDS011;231;48.120;11.576;2022-09-03T12:26:15;2.50;;;2.30;;
489;SDS011;231;48.120;11.576;2022-09-03T12:28:45;2.70;;;2.50;;
489;SDS011;231;48.120;11.576;2022-09-03T12:31:14;1.80;;;1.70;;
489;SDS011;231;48.120;11.576;2022-09-03T12:33:47;2.73;;;2.53;;
489;SDS011;231;48.120;11.576;2022-09-03T12:36:15;2.43;;;2.23;;
489;SDS011;231;48.120;11.576;2022-09-03T12:38:43;2.43;;;2.30;;
489;SDS011;231;48.120;11.576;2022-09-03T12:41:23;3.87;;;2.30;;
489;SDS011;231;48.120;11.576;2022-09-03T12:43:53;1.67;;;1.60;;
489;SDS011;231;48.120;11.576;2022-09-03T12:46:22;2.43;;;2.23;;
489;SDS011;231;48.120;11.576;2022-09-03T12:48:54;2.60;;;2.20;;
489;SDS011;231;48.120;11.576;2022-09-03T12:51:29;4.30;;;2.07;;
489;SDS011;231;48.120;11.576;2022-09-03T12:53:57;3.20;;;2.70;;
489;SDS011;231;48.120;11.576;2022-09-03T12:56:26;3.47;;;3.30;;
489;SDS011;231;48.120;11.576;2022-09-03T12:58:55;1.90;;;1.80;;
489;SDS011;231;48.120;11.576;2022-09-03T13:01:26;2.40;;;2.20;;
489;SDS011;231;48.120;11.576;2022-09-03T13:04:01;1.67;;;1.57;;
489;SDS011;231;48.120;11.576;2022-09-03T13:06:32;2.33;;;2.13;;
489;SDS011;231;48.120;11.576;2022-09-03T13:09:06;2.40;;;2.20;;
489;SDS011;231;48.120;11.576;2022-09-03T13:11:36;2.23;;;2.03;;
489;SDS011;231;48.120;11.576;2022-09-03T13:14:04;3.83;;;3.63;;
489;SDS011;231;48.120;11.576;2022-09-03T13:16:54;2.53;;;2.33;;
489;SDS011;231;48.120;11.576;2022-09-03T13:19:38;1.90;;;1.80;;
489;SDS011;231;48.120;11.576;2022-09-03T13:22:14;2.60;;;2.40;;
489;SDS011;231;48.120;11.576;2022-09-03T13:24:55;2.07;;;1.93;;
489;SDS011;231;48.120;11.576;2022-09-03T13:27:35;2.70;;;2.50;;
489;SDS011;231;48.120;11.576;2022-09-03T13:30:09;2.23;;;2.03;;
489;SDS011;231;48.120;11.576;2022-09-03T13:32:43;2.83;;;2.63;;
489;SDS011;231;48.120;11.576;2022-09-03T13:35:23;6.10;;;5.80;;
489;SDS011;231;48.120;11.576;2022-09-03T13:37:55;6.63;;;6.23;;
489;SDS011;231;48.120;11.576;2022-09-03T13:40:31;6.80;;;6.40;;
489;SDS011;231;48.120;11.576;2022-09-03T13:43:06;3.27;;;3.10;;
489;SDS011;231;48.120;11.576;2022-09-03T13:45:45;2.60;;;2.03;;
489;SDS011;231;48.120;11.576;2022-09-03T13:48:19;2.53;;;2.37;;
489;SDS011;231;48.120;11.576;2022-09-03T13:51:13;3.87;;;2.80;;
489;SDS011;231;48.120;11.576;2022-09-03T13:53:50;2.40;;;2.20;;
489;SDS011;231;48.120;11.576;2022-09-03T13:56:34;2.70;;;2.00;;
489;SDS011;231;48.120;11.576;2022-09-03T13:59:12;2.70;;;2.47;;
489;SDS011;231;48.120;11.576;2022-09-03T14:01:52;2.30;;;2.10;;
489;SDS011;231;48.120;11.576;2022-09-03T14:04:31;2.60;;;2.40;;
489;SDS011;231;48.120;11.576;2022-09-03T14:07:12;2.70;;;2.50;;
489;SDS011;231;48.120;11.576;2022-09-03T14:09:50;10.27;;;9.77;;
489;SDS011;231;48.120;11.576;2022-09-03T14:12:28;4.10;;;3.53;;
489;SDS011;231;48.120;11.576;2022-09-03T14:15:06;4.07;;;2.63;;
489;SDS011;231;48.120;11.576;2022-09-03T14:17:41;2.63;;;2.43;;
489;SDS011;231;48.120;11.576;2022-09-03T14:20:16;9.90;;;2.77;;
489;SDS011;231;48.120;11.576;2022-09-03T14:22:48;2.97;;;2.80;;
489;SDS011;231;48.120;11.576;2022-09-03T14:25:22;2.97;;;2.77;;
489;SDS011;231;48.120;11.576;2022-09-03T14:27:50;3.60;;;3.40;;
489;SDS011;231;48.120;11.576;2022-09-03T14:30:32;3.97;;;3.77;;
489;SDS011;231;48.120;11.576;2022-09-03T14:33:09;3.47;;;2.77;;
489;SDS011;231;48.120;11.576;2022-09-03T14:35:48;4.20;;;3.13;;
489;SDS011;231;48.120;11.576;2022-09-03T14:38:29;5.93;;;2.40;;
489;SDS011;231;48.120;11.576;2022-09-03T14:41:15;2.30;;;1.67;;
489;SDS011;231;48.120;11.576;2022-09-03T14:44:14;4.33;;;3.00;;
489;SDS011;231;48.120;11.576;2022-09-03T14:47:02;5.53;;;4.57;;
489;SDS011;231;48.120;11.576;2022-09-03T14:49:53;5.87;;;2.80;;
489;SDS011;231;48.120;11.576;2022-09-03T14:55:49;7.20;;;4.87;;
489;SDS011;231;48.120;11.576;2022-09-03T14:58:39;4.10;;;2.07;;
489;SDS011;231;48.120;11.576;2022-09-03T15:01:15;4.90;;;4.60;;
489;SDS011;231;48.120;11.576;2022-09-03T15:03:59;3.40;;;2.13;;
489;SDS011;231;48.120;11.576;2022-09-03T15:06:59;3.40;;;3.00;;
489;SDS011;231;48.120;11.576;2022-09-03T15:09:41;3.33;;;2.40;;
489;SDS011;231;48.120;11.576;2022-09-03T15:12:20;8.10;;;6.47;;
489;SDS011;231;48.120;11.576;2022-09-03T15:14:52;3.53;;;3.27;;
489;SDS011;231;48.120;11.576;2022-09-03T15:17:26;2.57;;;1.97;;
489;SDS011;231;48.120;11.576;2022-09-03T15:20:14;2.43;;;1.47;;
489;SDS011;231;48.120;11.576;2022-09-03T15:22:56;4.33;;;4.03;;
489;SDS011;231;48.120;11.576;2022-09-03T15:25:39;2.33;;;2.13;;
489;SDS011;231;48.120;11.576;2022-09-03T15:28:32;2.47;;;2.27;;
489;SDS011;231;48.120;11.576;2022-09-03T15:31:12;4.00;;;2.27;;
489;SDS011;231;48.120;11.576;2022-09-03T15:33:46;5.67;;;3.57;;
489;SDS011;231;48.120;11.576;2022-09-03T15:36:24;2.97;;;2.50;;
489;SDS011;231;48.120;11.576;2022-09-03T15:39:01;5.27;;;2.00;;
489;SDS011;231;48.120;11.576;2022-09-03T15:41:36;2.17;;;1.90;;
489;SDS011;231;48.120;11.576;2022-09-03T15:44:10;7.67;;;1.80;;
489;SDS011;231;48.120;11.576;2022-09-03T15:46:47;5.80;;;3.40;;
489;SDS011;231;48.120;11.576;2022-09-03T15:49:35;5.17;;;4.23;;
489;SDS011;231;48.120;11.576;2022-09-03T15:52:19;3.03;;;2.83;;
489;SDS011;231;48.120;11.576;2022-09-03T15:55:00;2.70;;;2.50;;
489;SDS011;231;48.120;11.576;2022-09-03T15:57:34;3.97;;;3.37;;
489;SDS011;231;48.120;11.576;2022-09-03T16:00:09;4.43;;;3.77;;
489;SDS011;231;48.120;11.576;2022-09-03T16:02:39;3.57;;;2.10;;
489;SDS011;231;48.120;11.576;2022-09-03T16:05:12;3.53;;;2.17;;
489;SDS011;231;48.120;11.576;2022-09-03T16:10:48;2.20;;;1.93;;
489;SDS011;231;48.120;11.576;2022-09-03T16:13:31;3.37;;;3.17;;
489;SDS011;231;48.120;11.576;2022-09-03T16:16:09;3.50;;;2.30;;
489;SDS011;231;48.120;11.576;2022-09-03T16:18:40;2.83;;;2.63;;
489;SDS011;231;48.120;11.576;2022-09-03T16:21:13;4.10;;;2.53;;
489;SDS011;231;48.120;11.576;2022-09-03T16:23:52;2.60;;;2.40;;
489;SDS011;231;48.120;11.576;2022-09-03T16:26:25;3.63;;;2.70;;
489;SDS011;231;48.120;11.576;2022-09-03T16:28:58;3.60;;;2.63;;